Time;durP1;ratioP1;P1;durP2;ratioP2;P2;SDS_P1;SDS_P2;PMS_P1;PMS_P2;Temp;Humidity;BMP_temperature;BMP_pressure;BME280_temperature;BME280_humidity;BME280_pressure;Samples;Min_cycle;Max_cycle;Signal;HPM_P1;HPM_P2
2023/08/02 00:02:25;;;;;;;7.95;2.33;;;;;;;;;;5049755;28;19995;-64
2023/08/02 00:04:52;;;;;;;7.45;2.40;;;;;;;;;;5053688;28;20065;-66
2023/08/02 00:07:18;;;;;;;14.60;2.63;;;;;;;;;;5040674;28;20049;-66
2023/08/02 00:09:45;;;;;;;24.83;12.75;;;;;;;;;;5052490;28;20122;-63
2023/08/02 00:12:14;;;;;;;22.60;10.82;;;;;;;;;;5051857;28;20040;-63
2023/08/02 00:14:40;;;;;;;;;;;;;;;;;;5034900;28;20163;-64
2023/08/02 00:17:07;;;;;;;6.85;2.47;;;;;;;;;;5035532;28;19924;-66
2023/08/02 00:19:34;;;;;;;5.95;2.45;;;;;;;;;;5040699;28;20057;-63
2023/08/02 00:22:01;;;;;;;8.00;2.47;;;;;;;;;;5038598;28;20327;-67
2023/08/02 00:24:27;;;;;;;7.78;2.20;;;;;;;;;;5032665;28;20106;-64
2023/08/02 00:26:54;;;;;;;6.63;2.17;;;;;;;;;;5025696;28;20162;-63
2023/08/02 00:29:22;;;;;;;9.63;2.60;;;;;;;;;;5038080;28;20057;-65
2023/08/02 00:31:49;;;;;;;7.82;2.40;;;;;;;;;;5043429;28;20064;-64
2023/08/02 00:34:15;;;;;;;6.60;2.28;;;;;;;;;;5040833;28;20049;-64
2023/08/02 00:36:42;;;;;;;11.85;2.17;;;;;;;;;;5031095;28;21122;-66
2023/08/02 00:39:08;;;;;;;5.95;2.00;;;;;;;;;;5039334;28;20049;-65
2023/08/02 00:41:35;;;;;;;10.02;2.05;;;;;;;;;;5040092;28;20037;-62
2023/08/02 00:44:02;;;;;;;5.00;2.17;;;;;;;;;;5040208;28;20057;-64
2023/08/02 00:46:30;;;;;;;7.13;2.72;;;;;;;;;;5027578;28;20106;-63
2023/08/02 00:48:57;;;;;;;16.23;6.50;;;;;;;;;;5036764;28;20064;-66
2023/08/02 00:51:23;;;;;;;10.70;4.38;;;;;;;;;;5058325;28;20291;-63
2023/08/02 00:53:50;;;;;;;9.30;2.63;;;;;;;;;;5040424;28;20049;-63
2023/08/02 00:56:18;;;;;;;11.45;2.70;;;;;;;;;;5030029;28;20053;-65
2023/08/02 00:59:19;;;;;;;8.63;2.77;;;;;;;;;;5038011;28;20060;-64
2023/08/02 01:01:51;;;;;;;6.90;3.08;;;;;;;;;;5022186;28;20107;-65
2023/08/02 01:04:28;;;;;;;7.47;2.85;;;;;;;;;;5021970;28;20051;-66
2023/08/02 01:07:03;;;;;;;9.20;3.25;;;;;;;;;;5024588;28;20132;-67
2023/08/02 01:09:38;;;;;;;12.43;3.83;;;;;;;;;;5029877;28;20102;-66
2023/08/02 01:12:08;;;;;;;10.07;4.18;;;;;;;;;;4979171;28;20126;-64
2023/08/02 01:14:40;;;;;;;16.95;4.10;;;;;;;;;;4976650;28;20059;-65
2023/08/02 01:17:09;;;;;;;12.18;4.38;;;;;;;;;;4974099;28;20065;-65
2023/08/02 01:19:35;;;;;;;;;;;;;;;;;;5027607;28;20058;-65
2023/08/02 01:22:04;;;;;;;8.82;3.17;;;;;;;;;;5027444;28;19977;-65
2023/08/02 01:24:32;;;;;;;;;;;;;;;;;;5037650;28;20053;-64
2023/08/02 01:27:01;;;;;;;7.63;3.15;;;;;;;;;;5025603;28;19926;-65
2023/08/02 01:29:29;;;;;;;8.98;3.20;;;;;;;;;;5027500;28;20066;-65
2023/08/02 01:31:57;;;;;;;6.33;3.00;;;;;;;;;;5028573;28;20051;-64
2023/08/02 01:34:24;;;;;;;18.67;3.97;;;;;;;;;;4975450;28;20086;-66
2023/08/02 01:36:51;;;;;;;10.13;3.53;;;;;;;;;;5024053;28;20082;-63
2023/08/02 01:39:19;;;;;;;7.70;3.15;;;;;;;;;;5026444;28;20115;-65
2023/08/02 01:41:46;;;;;;;9.90;3.50;;;;;;;;;;5026998;28;20059;-63
2023/08/02 01:44:13;;;;;;;12.68;4.55;;;;;;;;;;4981667;28;20066;-65
2023/08/02 01:46:39;;;;;;;13.40;3.75;;;;;;;;;;5021193;28;20062;-62
2023/08/02 01:49:06;;;;;;;15.85;4.18;;;;;;;;;;4979422;28;20099;-63
2023/08/02 01:51:32;;;;;;;10.23;3.47;;;;;;;;;;5027411;28;20135;-64
2023/08/02 01:53:59;;;;;;;8.88;3.92;;;;;;;;;;5027494;28;20074;-64
2023/08/02 01:56:27;;;;;;;9.63;3.42;;;;;;;;;;4994062;28;20041;-64
2023/08/02 01:58:54;;;;;;;11.93;3.80;;;;;;;;;;5005176;28;20050;-62
2023/08/02 02:01:20;;;;;;;8.50;3.58;;;;;;;;;;4977466;28;20055;-62
2023/08/02 02:03:47;;;;;;;15.07;4.13;;;;;;;;;;4933272;28;20196;-64
2023/08/02 02:06:14;;;;;;;12.23;4.05;;;;;;;;;;5039023;28;20070;-63
2023/08/02 02:08:40;;;;;;;11.77;4.10;;;;;;;;;;5023468;28;20127;-64
2023/08/02 02:11:07;;;;;;;8.93;4.00;;;;;;;;;;5026645;28;20150;-65
2023/08/02 02:13:35;;;;;;;11.27;4.70;;;;;;;;;;4947245;28;20055;-65
2023/08/02 02:16:02;;;;;;;7.90;3.58;;;;;;;;;;4955025;28;20463;-63
2023/08/02 02:18:29;;;;;;;8.63;3.28;;;;;;;;;;4953237;28;20089;-65
2023/08/02 02:20:55;;;;;;;9.63;3.53;;;;;;;;;;4940994;28;20050;-62
2023/08/02 02:23:22;;;;;;;8.77;3.05;;;;;;;;;;4959051;28;20063;-65
2023/08/02 02:25:50;;;;;;;7.55;2.15;;;;;;;;;;4953427;28;20063;-65
2023/08/02 02:28:19;;;;;;;8.77;2.22;;;;;;;;;;4939259;28;20062;-62
2023/08/02 02:30:47;;;;;;;5.35;2.13;;;;;;;;;;4952058;28;20054;-64
2023/08/02 02:33:13;;;;;;;6.70;1.88;;;;;;;;;;4958394;28;20067;-62
2023/08/02 02:35:40;;;;;;;6.07;1.83;;;;;;;;;;4936378;28;20100;-62
2023/08/02 02:38:07;;;;;;;5.93;1.48;;;;;;;;;;4942793;28;20144;-65
2023/08/02 02:40:34;;;;;;;6.80;2.05;;;;;;;;;;4956250;28;20965;-64
2023/08/02 02:43:00;;;;;;;13.73;1.83;;;;;;;;;;4941795;28;20062;-63
2023/08/02 02:45:27;;;;;;;7.78;1.88;;;;;;;;;;4946019;28;20062;-64
2023/08/02 02:47:55;;;;;;;6.22;2.10;;;;;;;;;;4965602;28;20057;-62
2023/08/02 02:50:21;;;;;;;5.03;1.92;;;;;;;;;;4973174;28;20053;-63
2023/08/02 02:52:48;;;;;;;6.30;1.88;;;;;;;;;;4997587;28;20061;-64
2023/08/02 02:55:15;;;;;;;8.07;2.10;;;;;;;;;;4968496;28;20083;-63
2023/08/02 02:57:42;;;;;;;10.77;2.10;;;;;;;;;;5000963;28;20046;-64
2023/08/02 03:00:10;;;;;;;4.55;1.67;;;;;;;;;;4977773;28;20161;-65
2023/08/02 03:02:37;;;;;;;;;;;;;;;;;;4975719;28;21568;-63
2023/08/02 03:05:06;;;;;;;5.07;1.52;;;;;;;;;;4992376;28;19933;-65
2023/08/02 03:07:32;;;;;;;4.95;1.90;;;;;;;;;;4957840;28;20058;-65
2023/08/02 03:09:59;;;;;;;4.90;1.83;;;;;;;;;;4960500;28;20085;-64
2023/08/02 03:12:26;;;;;;;8.30;1.77;;;;;;;;;;4956648;28;20127;-65
2023/08/02 03:14:52;;;;;;;7.30;1.92;;;;;;;;;;4972078;28;20091;-65
2023/08/02 03:17:19;;;;;;;5.00;1.63;;;;;;;;;;4977429;28;20073;-64
2023/08/02 03:19:45;;;;;;;7.53;2.40;;;;;;;;;;4975860;28;20054;-64
2023/08/02 03:22:13;;;;;;;12.35;2.10;;;;;;;;;;4971961;28;20063;-64
2023/08/02 03:24:40;;;;;;;6.88;1.98;;;;;;;;;;4975090;28;21173;-63
2023/08/02 03:27:07;;;;;;;5.00;1.85;;;;;;;;;;4968464;28;20070;-62
2023/08/02 03:29:34;;;;;;;5.72;1.90;;;;;;;;;;4977908;28;20050;-63
2023/08/02 03:32:00;;;;;;;8.80;2.20;;;;;;;;;;4979741;28;20153;-63
2023/08/02 03:34:27;;;;;;;7.43;1.77;;;;;;;;;;4986227;28;20054;-63
2023/08/02 03:36:54;;;;;;;6.57;1.80;;;;;;;;;;4983615;28;20049;-62
2023/08/02 03:39:26;;;;;;;6.63;1.95;;;;;;;;;;4978295;28;20054;-65
2023/08/02 03:41:53;;;;;;;6.43;1.95;;;;;;;;;;4997269;28;20204;-64
2023/08/02 03:44:20;;;;;;;5.20;2.03;;;;;;;;;;4970753;28;20057;-64
2023/08/02 03:46:46;;;;;;;5.95;2.08;;;;;;;;;;4993602;28;20110;-64
2023/08/02 03:49:13;;;;;;;7.60;1.73;;;;;;;;;;4997881;28;20054;-65
2023/08/02 03:51:40;;;;;;;7.10;1.80;;;;;;;;;;4982437;28;20057;-62
2023/08/02 03:54:09;;;;;;;5.78;1.90;;;;;;;;;;4978856;28;20062;-64
2023/08/02 03:56:37;;;;;;;6.45;1.88;;;;;;;;;;4977717;28;20972;-65
2023/08/02 03:59:04;;;;;;;4.82;1.70;;;;;;;;;;4982718;28;20070;-63
2023/08/02 04:01:31;;;;;;;5.28;1.73;;;;;;;;;;4998584;28;20110;-66
2023/08/02 04:03:57;;;;;;;5.65;2.17;;;;;;;;;;4976478;28;20134;-63
2023/08/02 04:06:24;;;;;;;3.70;1.60;;;;;;;;;;4975545;28;20122;-62
2023/08/02 04:08:51;;;;;;;5.82;2.00;;;;;;;;;;4971456;28;20061;-64
2023/08/02 04:11:18;;;;;;;5.07;1.88;;;;;;;;;;4949686;28;20084;-64
2023/08/02 04:13:46;;;;;;;5.28;1.80;;;;;;;;;;4974159;28;20062;-64
2023/08/02 04:16:13;;;;;;;7.88;1.75;;;;;;;;;;4957585;28;20055;-65
2023/08/02 04:18:39;;;;;;;8.10;2.00;;;;;;;;;;4978545;28;20204;-63
2023/08/02 04:21:06;;;;;;;6.18;2.05;;;;;;;;;;4961691;28;20090;-66
2023/08/02 04:23:33;;;;;;;5.43;1.88;;;;;;;;;;4979375;28;20062;-65
2023/08/02 04:25:59;;;;;;;8.02;2.10;;;;;;;;;;4971693;28;20085;-63
2023/08/02 04:28:26;;;;;;;12.15;2.20;;;;;;;;;;4959672;28;20054;-62
2023/08/02 04:30:54;;;;;;;8.23;2.28;;;;;;;;;;4962253;28;20059;-67
2023/08/02 04:33:21;;;;;;;10.32;1.80;;;;;;;;;;4962587;28;20054;-65
2023/08/02 04:35:48;;;;;;;5.72;1.55;;;;;;;;;;4948429;28;20054;-64
2023/08/02 04:38:15;;;;;;;6.43;1.90;;;;;;;;;;4975656;28;20082;-62
2023/08/02 04:40:41;;;;;;;8.35;2.00;;;;;;;;;;4974001;28;20042;-64
2023/08/02 04:43:08;;;;;;;5.50;1.90;;;;;;;;;;4961628;28;20068;-63
2023/08/02 04:45:35;;;;;;;5.90;1.90;;;;;;;;;;4974159;28;20061;-63
2023/08/02 04:48:03;;;;;;;6.13;1.80;;;;;;;;;;4984339;28;20084;-61
2023/08/02 04:50:33;;;;;;;7.97;1.80;;;;;;;;;;4973626;28;20122;-64
2023/08/02 04:53:00;;;;;;;5.45;1.80;;;;;;;;;;4999759;28;20054;-63
2023/08/02 04:55:26;;;;;;;5.47;1.75;;;;;;;;;;4976883;28;20220;-65
2023/08/02 04:57:53;;;;;;;5.03;1.92;;;;;;;;;;4980439;28;20370;-63
2023/08/02 05:00:20;;;;;;;6.40;2.00;;;;;;;;;;4991615;28;20080;-64
2023/08/02 05:02:46;;;;;;;7.30;2.20;;;;;;;;;;4999134;28;20061;-63
2023/08/02 05:05:15;;;;;;;8.57;3.30;;;;;;;;;;4976574;28;20066;-62
2023/08/02 05:07:42;;;;;;;6.57;2.05;;;;;;;;;;4978919;28;20058;-64
2023/08/02 05:10:09;;;;;;;6.55;1.92;;;;;;;;;;4976754;28;20048;-63
2023/08/02 05:12:38;;;;;;;5.53;1.77;;;;;;;;;;4985235;28;20107;-65
2023/08/02 05:15:05;;;;;;;6.50;1.85;;;;;;;;;;4977298;28;20133;-62
2023/08/02 05:17:32;;;;;;;4.77;1.60;;;;;;;;;;4981232;28;20054;-66
2023/08/02 05:19:59;;;;;;;6.07;2.22;;;;;;;;;;4978956;28;20229;-65
2023/08/02 05:22:27;;;;;;;6.35;1.63;;;;;;;;;;4974642;28;20052;-63
2023/08/02 05:24:53;;;;;;;6.15;1.60;;;;;;;;;;4969081;28;20050;-64
2023/08/02 05:27:20;;;;;;;6.90;2.10;;;;;;;;;;4981480;28;20077;-65
2023/08/02 05:29:47;;;;;;;9.20;2.50;;;;;;;;;;4977808;28;20058;-62
2023/08/02 05:32:14;;;;;;;10.10;2.15;;;;;;;;;;4977402;28;20101;-65
2023/08/02 05:34:40;;;;;;;4.60;1.85;;;;;;;;;;4980508;28;20096;-63
2023/08/02 05:37:07;;;;;;;7.93;2.05;;;;;;;;;;4960393;28;20142;-65
2023/08/02 05:39:35;;;;;;;5.97;2.13;;;;;;;;;;4958327;28;20081;-65
2023/08/02 05:42:02;;;;;;;8.70;2.08;;;;;;;;;;4977771;28;20054;-63
2023/08/02 05:44:29;;;;;;;6.13;2.08;;;;;;;;;;4966393;28;20048;-62
2023/08/02 05:46:55;;;;;;;4.53;1.88;;;;;;;;;;4978245;28;20122;-65
2023/08/02 05:49:22;;;;;;;8.73;1.92;;;;;;;;;;4977862;28;20046;-65
2023/08/02 05:51:49;;;;;;;9.85;2.20;;;;;;;;;;4996866;28;20057;-62
2023/08/02 05:54:16;;;;;;;7.38;1.88;;;;;;;;;;4973296;28;20062;-65
2023/08/02 05:56:45;;;;;;;6.30;2.00;;;;;;;;;;4975619;28;20054;-64
2023/08/02 05:59:11;;;;;;;6.35;2.35;;;;;;;;;;4978635;28;20049;-65
2023/08/02 06:01:38;;;;;;;4.70;1.90;;;;;;;;;;4966278;28;20053;-64
2023/08/02 06:04:05;;;;;;;7.72;2.08;;;;;;;;;;4973060;28;20058;-63
2023/08/02 06:06:32;;;;;;;4.40;1.90;;;;;;;;;;5035583;28;20142;-62
2023/08/02 06:08:59;;;;;;;5.43;2.13;;;;;;;;;;5044626;28;20118;-63
2023/08/02 06:11:25;;;;;;;6.35;2.15;;;;;;;;;;5043290;28;20053;-63
2023/08/02 06:13:57;;;;;;;7.07;2.08;;;;;;;;;;5075859;28;20130;-64
2023/08/02 06:16:26;;;;;;;6.43;1.67;;;;;;;;;;5055507;28;20142;-63
2023/08/02 06:18:53;;;;;;;8.05;3.20;;;;;;;;;;5061848;28;20062;-64
2023/08/02 06:21:22;;;;;;;12.25;4.70;;;;;;;;;;5061671;28;20060;-63
2023/08/02 06:23:49;;;;;;;10.95;3.20;;;;;;;;;;5058171;28;20067;-63
2023/08/02 06:26:25;;;;;;;9.48;3.00;;;;;;;;;;5061851;28;20150;-63
2023/08/02 06:28:52;;;;;;;5.88;2.15;;;;;;;;;;5078995;28;20052;-64
2023/08/02 06:31:20;;;;;;;5.72;1.95;;;;;;;;;;5035861;28;20216;-64
2023/08/02 06:33:47;;;;;;;4.63;2.28;;;;;;;;;;4999606;28;20045;-64
2023/08/02 06:36:14;;;;;;;4.70;1.77;;;;;;;;;;4966167;28;20058;-65
2023/08/02 06:38:40;;;;;;;4.90;1.92;;;;;;;;;;4991631;28;20187;-64
2023/08/02 06:41:07;;;;;;;5.10;2.00;;;;;;;;;;4979153;28;20138;-65
2023/08/02 06:43:35;;;;;;;6.43;2.15;;;;;;;;;;4980467;28;20064;-64
2023/08/02 06:46:02;;;;;;;7.47;2.15;;;;;;;;;;4973071;28;20077;-64
2023/08/02 06:48:31;;;;;;;6.43;2.38;;;;;;;;;;4975669;28;20076;-64
2023/08/02 06:50:58;;;;;;;6.85;2.05;;;;;;;;;;4979654;28;20065;-65
2023/08/02 06:53:24;;;;;;;5.20;1.88;;;;;;;;;;4980226;28;20425;-63
2023/08/02 06:55:51;;;;;;;6.80;2.03;;;;;;;;;;4972632;28;20060;-66
2023/08/02 06:58:18;;;;;;;5.85;2.03;;;;;;;;;;4974259;28;20070;-63
2023/08/02 07:00:46;;;;;;;6.85;2.05;;;;;;;;;;4971769;28;20057;-64
2023/08/02 07:03:12;;;;;;;5.07;1.73;;;;;;;;;;4976483;28;20062;-66
2023/08/02 07:05:41;;;;;;;6.40;2.10;;;;;;;;;;5038273;28;20115;-63
2023/08/02 07:08:11;;;;;;;5.43;1.92;;;;;;;;;;5044757;28;20066;-64
2023/08/02 07:10:42;;;;;;;6.38;1.90;;;;;;;;;;4958877;28;20068;-64
2023/08/02 07:13:09;;;;;;;4.18;1.90;;;;;;;;;;5054346;28;20066;-63
2023/08/02 07:15:36;;;;;;;3.50;1.90;;;;;;;;;;5046294;28;20064;-63
2023/08/02 07:18:03;;;;;;;4.93;2.20;;;;;;;;;;5079036;28;20066;-64
2023/08/02 07:20:29;;;;;;;4.03;1.50;;;;;;;;;;5021892;28;20042;-64
2023/08/02 07:22:58;;;;;;;3.47;1.58;;;;;;;;;;4995735;28;20111;-63
2023/08/02 07:25:24;;;;;;;4.47;1.80;;;;;;;;;;4977949;28;20054;-64
2023/08/02 07:27:51;;;;;;;4.25;1.67;;;;;;;;;;5000228;28;20134;-63
2023/08/02 07:30:18;;;;;;;4.13;1.60;;;;;;;;;;4993921;28;20050;-64
2023/08/02 07:32:45;;;;;;;3.30;1.55;;;;;;;;;;4985376;28;20077;-63
2023/08/02 07:35:12;;;;;;;4.15;1.52;;;;;;;;;;4978178;28;20046;-64
2023/08/02 07:37:40;;;;;;;3.08;1.60;;;;;;;;;;4999835;28;20049;-65
2023/08/02 07:40:10;;;;;;;4.80;1.65;;;;;;;;;;4999344;28;20050;-66
2023/08/02 07:42:38;;;;;;;4.55;1.35;;;;;;;;;;4981910;28;20068;-64
2023/08/02 07:45:10;;;;;;;3.08;1.35;;;;;;;;;;4986363;28;20150;-65
2023/08/02 07:47:38;;;;;;;2.05;1.17;;;;;;;;;;4999511;28;20042;-65
2023/08/02 07:50:09;;;;;;;4.28;1.40;;;;;;;;;;4980765;28;20062;-64
2023/08/02 07:52:37;;;;;;;2.45;1.23;;;;;;;;;;4993959;28;20046;-65
2023/08/02 07:55:04;;;;;;;;;;;;;;;;;;4974394;28;20051;-65
2023/08/02 07:57:35;;;;;;;3.40;1.30;;;;;;;;;;4991372;28;19987;-65
2023/08/02 08:00:02;;;;;;;2.65;1.08;;;;;;;;;;4979374;28;20073;-65
2023/08/02 08:02:29;;;;;;;1.83;0.98;;;;;;;;;;5045113;28;20054;-64
2023/08/02 08:04:56;;;;;;;1.63;0.95;;;;;;;;;;5041242;28;20069;-63
2023/08/02 08:07:23;;;;;;;1.77;0.95;;;;;;;;;;4981626;28;20054;-64
2023/08/02 08:09:52;;;;;;;1.40;0.80;;;;;;;;;;4994485;28;20061;-64
2023/08/02 08:12:18;;;;;;;1.48;0.90;;;;;;;;;;5018722;28;20064;-65
2023/08/02 08:14:46;;;;;;;1.27;0.88;;;;;;;;;;5078059;28;20071;-64
2023/08/02 08:17:13;;;;;;;1.17;0.82;;;;;;;;;;5082238;28;20056;-64
2023/08/02 08:19:40;;;;;;;6.35;3.00;;;;;;;;;;5081610;28;20056;-65
2023/08/02 08:22:10;;;;;;;5.82;2.47;;;;;;;;;;5063842;28;20105;-64
2023/08/02 08:24:36;;;;;;;4.80;1.50;;;;;;;;;;5057772;28;20044;-64
2023/08/02 08:27:04;;;;;;;1.65;0.98;;;;;;;;;;5064576;28;20052;-64
2023/08/02 08:29:30;;;;;;;1.63;0.90;;;;;;;;;;5077369;28;20055;-66
2023/08/02 08:31:59;;;;;;;1.50;0.63;;;;;;;;;;4943443;28;20062;-63
2023/08/02 08:34:25;;;;;;;1.05;0.65;;;;;;;;;;4931034;28;20051;-64
2023/08/02 08:36:52;;;;;;;0.75;0.63;;;;;;;;;;4942880;28;20064;-64
2023/08/02 08:39:19;;;;;;;1.20;0.80;;;;;;;;;;4942402;28;20059;-65
2023/08/02 08:41:46;;;;;;;1.10;0.63;;;;;;;;;;4960013;28;20136;-64
2023/08/02 08:44:13;;;;;;;1.05;0.60;;;;;;;;;;4952200;28;20062;-65
2023/08/02 08:46:41;;;;;;;0.75;0.63;;;;;;;;;;4940226;28;20057;-64
2023/08/02 08:49:10;;;;;;;1.70;1.00;;;;;;;;;;4962828;28;20046;-64
2023/08/02 08:51:42;;;;;;;1.77;0.80;;;;;;;;;;4961271;28;20220;-64
2023/08/02 08:54:17;;;;;;;4.45;1.20;;;;;;;;;;5001290;28;20130;-64
2023/08/02 08:56:44;;;;;;;1.30;0.90;;;;;;;;;;4980935;28;20066;-64
2023/08/02 08:59:15;;;;;;;3.10;1.10;;;;;;;;;;4979403;28;20058;-64
2023/08/02 09:01:46;;;;;;;1.08;0.80;;;;;;;;;;5044245;28;20046;-65
2023/08/02 09:04:18;;;;;;;1.15;0.80;;;;;;;;;;5044193;28;20144;-64
2023/08/02 09:06:46;;;;;;;0.75;0.68;;;;;;;;;;5047693;28;20070;-66
2023/08/02 09:09:15;;;;;;;4.75;0.90;;;;;;;;;;5044352;28;20058;-66
2023/08/02 09:11:43;;;;;;;1.27;0.90;;;;;;;;;;4996320;28;20058;-68
2023/08/02 09:14:12;;;;;;;1.50;0.85;;;;;;;;;;5069908;28;20060;-64
2023/08/02 09:16:58;;;;;;;1.95;0.80;;;;;;;;;;5062802;28;20066;-66
2023/08/02 09:19:28;;;;;;;2.67;1.30;;;;;;;;;;4946125;28;20051;-66
2023/08/02 09:22:09;;;;;;;1.55;0.85;;;;;;;;;;4958302;28;20090;-65
2023/08/02 09:24:38;;;;;;;2.00;0.85;;;;;;;;;;4948096;28;20132;-65
2023/08/02 09:27:05;;;;;;;2.78;1.00;;;;;;;;;;4957598;28;20160;-65
2023/08/02 09:29:47;;;;;;;3.75;1.10;;;;;;;;;;4958196;28;20050;-65
2023/08/02 09:32:15;;;;;;;1.63;0.80;;;;;;;;;;4974092;28;20066;-67
2023/08/02 09:34:45;;;;;;;3.10;0.93;;;;;;;;;;4975741;28;20058;-65
2023/08/02 09:37:13;;;;;;;2.28;1.00;;;;;;;;;;4980529;28;20054;-65
2023/08/02 09:39:45;;;;;;;2.80;1.20;;;;;;;;;;4984675;28;20050;-65
2023/08/02 09:42:14;;;;;;;2.28;1.05;;;;;;;;;;5000472;28;20073;-66
2023/08/02 09:44:42;;;;;;;1.45;1.10;;;;;;;;;;4972318;28;20058;-65
2023/08/02 09:47:10;;;;;;;9.65;5.25;;;;;;;;;;4961345;28;20058;-66
2023/08/02 09:49:37;;;;;;;7.80;4.28;;;;;;;;;;4991519;28;20066;-65
2023/08/02 09:52:10;;;;;;;5.25;1.98;;;;;;;;;;5049304;28;20054;-66
2023/08/02 09:54:37;;;;;;;3.35;1.27;;;;;;;;;;5034354;28;20054;-65
2023/08/02 09:57:05;;;;;;;2.40;1.35;;;;;;;;;;4979122;28;20066;-65
2023/08/02 09:59:34;;;;;;;4.22;1.80;;;;;;;;;;4977620;28;20059;-65
2023/08/02 10:02:04;;;;;;;4.93;1.50;;;;;;;;;;5043739;28;20115;-65
2023/08/02 10:04:32;;;;;;;7.70;1.80;;;;;;;;;;4963161;28;20062;-66
2023/08/02 10:07:04;;;;;;;3.40;1.83;;;;;;;;;;5045481;28;20089;-65
2023/08/02 10:09:37;;;;;;;5.72;2.42;;;;;;;;;;5033448;28;20366;-65
2023/08/02 10:12:11;;;;;;;2.97;1.80;;;;;;;;;;5004509;28;20044;-65
2023/08/02 10:14:38;;;;;;;3.85;2.33;;;;;;;;;;5068546;28;20052;-64
2023/08/02 10:17:05;;;;;;;3.17;1.52;;;;;;;;;;5061956;28;20067;-64
2023/08/02 10:19:37;;;;;;;5.22;1.77;;;;;;;;;;5076685;28;20076;-67
2023/08/02 10:22:05;;;;;;;2.88;1.65;;;;;;;;;;5078448;28;20060;-65
2023/08/02 10:24:34;;;;;;;2.35;1.55;;;;;;;;;;5037498;28;20048;-64
2023/08/02 10:27:04;;;;;;;5.18;1.65;;;;;;;;;;5083229;28;20055;-65
2023/08/02 10:29:34;;;;;;;1.95;1.23;;;;;;;;;;5060417;28;20051;-65
2023/08/02 10:32:12;;;;;;;3.40;1.70;;;;;;;;;;5078589;28;20137;-65
2023/08/02 10:34:49;;;;;;;3.60;2.25;;;;;;;;;;5040145;28;20056;-65
2023/08/02 10:37:18;;;;;;;4.25;1.63;;;;;;;;;;5061598;28;20051;-65
2023/08/02 10:40:00;;;;;;;2.60;1.60;;;;;;;;;;5059998;28;20093;-66
2023/08/02 10:42:29;;;;;;;3.03;1.77;;;;;;;;;;4983542;28;20054;-65
2023/08/02 10:45:15;;;;;;;4.55;2.25;;;;;;;;;;4954594;28;20054;-65
2023/08/02 10:47:43;;;;;;;9.50;5.13;;;;;;;;;;4965736;28;20084;-65
2023/08/02 10:50:48;;;;;;;7.03;3.83;;;;;;;;;;4976194;28;20050;-65
2023/08/02 10:53:15;;;;;;;4.22;2.10;;;;;;;;;;4994316;28;20112;-65
2023/08/02 10:56:03;;;;;;;3.42;1.67;;;;;;;;;;4978029;28;20057;-66
2023/08/02 10:58:49;;;;;;;4.78;1.77;;;;;;;;;;4977333;28;20369;-65
2023/08/02 11:01:16;;;;;;;3.50;1.60;;;;;;;;;;4980257;28;20050;-64
2023/08/02 11:03:44;;;;;;;3.28;1.67;;;;;;;;;;4995178;28;20062;-65
2023/08/02 11:06:25;;;;;;;3.00;1.67;;;;;;;;;;4973048;28;20060;-66
2023/08/02 11:08:52;;;;;;;2.00;1.40;;;;;;;;;;4978626;28;20061;-66
2023/08/02 11:11:34;;;;;;;3.58;2.00;;;;;;;;;;4996249;28;20058;-65
2023/08/02 11:14:01;;;;;;;2.85;1.88;;;;;;;;;;4952996;28;20058;-65
2023/08/02 11:16:33;;;;;;;2.58;1.50;;;;;;;;;;4951339;28;20157;-65
2023/08/02 11:19:01;;;;;;;2.35;1.60;;;;;;;;;;4940570;28;20150;-65
2023/08/02 11:21:30;;;;;;;2.83;1.45;;;;;;;;;;4957664;28;20051;-66
2023/08/02 11:24:00;;;;;;;;;;;;;;;;;;4947166;28;20122;-65
2023/08/02 11:26:28;;;;;;;2.45;1.60;;;;;;;;;;4951468;28;20146;-66
2023/08/02 11:28:55;;;;;;;4.22;1.70;;;;;;;;;;4962913;28;20066;-67
2023/08/02 11:31:24;;;;;;;4.93;2.08;;;;;;;;;;4959162;28;20131;-64
2023/08/02 11:33:54;;;;;;;4.43;1.75;;;;;;;;;;4957250;28;20050;-65
2023/08/02 11:36:25;;;;;;;5.20;1.83;;;;;;;;;;4966833;28;20054;-66
2023/08/02 11:38:56;;;;;;;6.60;2.40;;;;;;;;;;4957515;28;20065;-65
2023/08/02 11:41:23;;;;;;;4.75;2.15;;;;;;;;;;4972738;28;20053;-65
2023/08/02 11:43:53;;;;;;;2.92;1.88;;;;;;;;;;5041136;28;20050;-66
2023/08/02 11:46:23;;;;;;;3.85;2.08;;;;;;;;;;5044474;28;20094;-66
2023/08/02 11:48:59;;;;;;;2.97;1.70;;;;;;;;;;5004881;28;20085;-67
2023/08/02 11:51:26;;;;;;;5.53;1.95;;;;;;;;;;4978977;28;20054;-66
2023/08/02 11:53:59;;;;;;;5.93;1.58;;;;;;;;;;4995795;28;20054;-67
2023/08/02 11:56:28;;;;;;;2.72;1.52;;;;;;;;;;4967857;28;20046;-66
2023/08/02 11:58:55;;;;;;;3.55;1.70;;;;;;;;;;4976378;28;20064;-66
2023/08/02 12:01:23;;;;;;;3.05;1.52;;;;;;;;;;5024733;28;20077;-66
2023/08/02 12:04:00;;;;;;;3.95;2.00;;;;;;;;;;5047072;28;20050;-67
2023/08/02 12:06:30;;;;;;;3.42;1.60;;;;;;;;;;5034285;28;20054;-66
2023/08/02 12:09:00;;;;;;;3.53;1.75;;;;;;;;;;4980126;28;20043;-65
2023/08/02 12:11:28;;;;;;;3.50;1.52;;;;;;;;;;5041107;28;20081;-66
2023/08/02 12:13:55;;;;;;;4.13;1.63;;;;;;;;;;5037943;28;20073;-66
2023/08/02 12:16:22;;;;;;;3.80;1.88;;;;;;;;;;4967010;28;20054;-65
2023/08/02 12:18:53;;;;;;;3.20;1.50;;;;;;;;;;4978905;28;20077;-65
2023/08/02 12:21:20;;;;;;;7.03;1.85;;;;;;;;;;4994021;28;20068;-64
2023/08/02 12:23:47;;;;;;;3.67;1.38;;;;;;;;;;4992959;28;20054;-64
2023/08/02 12:26:29;;;;;;;3.22;1.30;;;;;;;;;;4960864;28;20168;-64
2023/08/02 12:28:56;;;;;;;6.88;1.70;;;;;;;;;;4978350;28;20058;-64
2023/08/02 12:31:26;;;;;;;10.00;1.33;;;;;;;;;;4979100;28;20058;-64
2023/08/02 12:33:53;;;;;;;7.30;1.17;;;;;;;;;;4977777;28;20046;-64
2023/08/02 12:36:28;;;;;;;9.27;1.70;;;;;;;;;;4966696;28;20073;-65
2023/08/02 12:38:56;;;;;;;7.65;1.55;;;;;;;;;;4985627;28;20057;-65
2023/08/02 12:41:23;;;;;;;7.70;1.60;;;;;;;;;;5009696;28;20113;-64
2023/08/02 12:43:51;;;;;;;5.63;1.33;;;;;;;;;;5079892;28;20064;-65
2023/08/02 12:46:19;;;;;;;5.05;1.30;;;;;;;;;;5059182;28;20169;-64
2023/08/02 12:48:46;;;;;;;8.50;1.40;;;;;;;;;;5006500;28;20169;-65
2023/08/02 12:51:14;;;;;;;8.52;1.38;;;;;;;;;;4997218;28;20148;-65
2023/08/02 12:53:43;;;;;;;5.67;1.00;;;;;;;;;;4979842;28;20144;-67
2023/08/02 12:56:11;;;;;;;5.65;0.90;;;;;;;;;;4939493;28;20057;-66
2023/08/02 12:58:38;;;;;;;2.20;0.60;;;;;;;;;;4979982;28;20281;-65
2023/08/02 13:01:06;;;;;;;5.25;0.80;;;;;;;;;;4996308;28;20054;-66
2023/08/02 13:03:33;;;;;;;3.85;0.90;;;;;;;;;;4997783;28;20050;-66
2023/08/02 13:06:00;;;;;;;2.95;0.90;;;;;;;;;;4966341;28;20105;-66
2023/08/02 13:08:26;;;;;;;3.30;1.00;;;;;;;;;;4976509;28;20057;-66
2023/08/02 13:10:53;;;;;;;4.40;0.80;;;;;;;;;;4998548;28;20054;-67
2023/08/02 13:13:22;;;;;;;5.30;1.13;;;;;;;;;;4966024;28;20059;-66
2023/08/02 13:15:51;;;;;;;5.00;1.00;;;;;;;;;;4894071;28;20127;-67
2023/08/02 13:18:19;;;;;;;;;;;;;;;;;;4978185;28;20088;-67
2023/08/02 13:20:46;;;;;;;2.90;0.85;;;;;;;;;;4980590;28;19921;-66
2023/08/02 13:23:14;;;;;;;4.53;0.90;;;;;;;;;;4979699;28;20046;-65
2023/08/02 13:25:41;;;;;;;5.85;0.90;;;;;;;;;;4959676;28;20086;-66
2023/08/02 13:28:12;;;;;;;6.70;0.85;;;;;;;;;;4978104;28;20061;-66
2023/08/02 13:30:39;;;;;;;5.47;0.90;;;;;;;;;;4963850;28;21788;-69
2023/08/02 13:33:06;;;;;;;3.25;0.80;;;;;;;;;;4965529;28;20107;-65
2023/08/02 13:35:34;;;;;;;3.17;0.85;;;;;;;;;;4945718;28;20090;-65
2023/08/02 13:38:01;;;;;;;3.95;1.05;;;;;;;;;;4994530;28;20073;-65
2023/08/02 13:40:30;;;;;;;3.70;0.90;;;;;;;;;;4989565;28;20061;-65
2023/08/02 13:42:57;;;;;;;;;;;;;;;;;;4998176;28;20134;-64
2023/08/02 13:45:24;;;;;;;3.20;0.70;;;;;;;;;;4979744;28;20130;-65
2023/08/02 13:47:51;;;;;;;7.40;1.05;;;;;;;;;;4980476;28;20046;-65
2023/08/02 13:50:18;;;;;;;2.28;0.65;;;;;;;;;;4976163;28;20062;-66
2023/08/02 13:52:47;;;;;;;4.65;0.73;;;;;;;;;;4979139;28;20095;-66
2023/08/02 13:55:13;;;;;;;;;;;;;;;;;;4982560;28;20144;-64
2023/08/02 13:57:40;;;;;;;3.75;0.70;;;;;;;;;;4980467;28;19925;-64
2023/08/02 14:00:09;;;;;;;3.25;0.50;;;;;;;;;;4979080;28;20054;-65
2023/08/02 14:02:36;;;;;;;2.95;1.10;;;;;;;;;;4992256;28;20050;-65
2023/08/02 14:05:07;;;;;;;4.80;0.80;;;;;;;;;;4952713;28;20062;-66
2023/08/02 14:07:36;;;;;;;3.22;0.77;;;;;;;;;;4984508;28;20085;-66
2023/08/02 14:10:13;;;;;;;7.35;1.17;;;;;;;;;;4975514;28;20077;-65
2023/08/02 14:12:40;;;;;;;4.85;0.82;;;;;;;;;;4963121;28;20054;-63
2023/08/02 14:15:10;;;;;;;3.42;0.80;;;;;;;;;;4946379;28;20054;-64
2023/08/02 14:17:36;;;;;;;4.28;0.70;;;;;;;;;;4978479;28;20102;-65
2023/08/02 14:20:10;;;;;;;3.67;0.70;;;;;;;;;;4966656;28;20061;-64
2023/08/02 14:22:37;;;;;;;3.83;0.63;;;;;;;;;;4971190;28;20062;-65
2023/08/02 14:25:10;;;;;;;4.00;0.70;;;;;;;;;;4968454;28;20073;-64
2023/08/02 14:27:40;;;;;;;1.20;0.52;;;;;;;;;;4988962;28;20062;-64
2023/08/02 14:30:11;;;;;;;2.50;0.70;;;;;;;;;;4976304;28;20079;-65
2023/08/02 14:32:37;;;;;;;3.10;0.70;;;;;;;;;;4937202;28;20280;-64
2023/08/02 14:35:06;;;;;;;1.75;0.50;;;;;;;;;;4971253;28;20046;-66
2023/08/02 14:37:33;;;;;;;2.70;0.65;;;;;;;;;;5044272;28;20074;-65
2023/08/02 14:39:59;;;;;;;2.30;0.60;;;;;;;;;;5043319;28;20077;-64
2023/08/02 14:42:27;;;;;;;5.97;0.73;;;;;;;;;;4969637;28;20057;-64
2023/08/02 14:44:54;;;;;;;2.95;0.70;;;;;;;;;;4965979;28;20146;-65
2023/08/02 14:47:21;;;;;;;1.85;0.60;;;;;;;;;;5044294;28;20103;-64
2023/08/02 14:49:48;;;;;;;5.30;0.90;;;;;;;;;;5043199;28;20139;-64
2023/08/02 14:52:17;;;;;;;5.38;0.77;;;;;;;;;;5042174;28;20054;-62
2023/08/02 14:54:44;;;;;;;4.20;0.82;;;;;;;;;;4974331;28;20077;-63